Time;durP1;ratioP1;P1;durP2;ratioP2;P2;SDS_P1;SDS_P2;PMS_P1;PMS_P2;Temp;Humidity;BMP_temperature;BMP_pressure;BME280_temperature;BME280_humidity;BME280_pressure;Samples;Min_cycle;Max_cycle;Signal;HPM_P1;HPM_P2
2023/07/20 00:01:58;;;;;;;1.90;1.70;;;;;;;18.77;100.00;99024.81;104354;1257;71269;-56
2023/07/20 00:04:26;;;;;;;2.50;2.10;;;;;;;18.74;100.00;99021.88;104328;1258;61553;-56
2023/07/20 00:06:54;;;;;;;3.90;1.70;;;;;;;18.74;100.00;99019.58;104426;1256;60190;-56
2023/07/20 00:09:21;;;;;;;2.60;1.90;;;;;;;18.70;100.00;99019.36;104359;1253;73770;-57
2023/07/20 00:11:50;;;;;;;;;;;;;;;18.67;100.00;99018.89;104412;1258;69565;-56
2023/07/20 00:14:19;;;;;;;3.00;2.10;;;;;;;18.62;100.00;99018.94;104298;1253;72706;-56
2023/07/20 00:16:48;;;;;;;5.40;2.30;;;;;;;18.58;100.00;99020.20;104484;1272;59965;-57
2023/07/20 00:19:16;;;;;;;5.10;1.90;;;;;;;18.56;100.00;99019.67;104598;1253;60754;-56
2023/07/20 00:21:44;;;;;;;7.00;2.40;;;;;;;18.57;100.00;99022.28;104362;1272;72895;-57
2023/07/20 00:24:12;;;;;;;5.20;2.20;;;;;;;18.59;100.00;99021.70;104315;1257;69153;-56
2023/07/20 00:26:39;;;;;;;2.30;2.00;;;;;;;18.59;100.00;99019.23;104377;1271;71069;-57
2023/07/20 00:29:07;;;;;;;2.10;1.90;;;;;;;18.56;100.00;99016.33;104467;1256;59838;-55
2023/07/20 00:31:36;;;;;;;4.10;2.30;;;;;;;18.52;100.00;99018.30;104478;1257;60739;-56
2023/07/20 00:34:04;;;;;;;1.70;1.60;;;;;;;18.48;100.00;99025.33;104263;1266;74018;-57
2023/07/20 00:36:32;;;;;;;2.40;1.80;;;;;;;18.41;100.00;99023.05;104400;1271;70102;-56
2023/07/20 00:39:02;;;;;;;2.40;1.50;;;;;;;18.42;100.00;99023.75;105806;1253;72523;-57
2023/07/20 00:41:31;;;;;;;3.50;1.60;;;;;;;18.44;100.00;99016.08;107991;1253;62371;-57
2023/07/20 00:43:59;;;;;;;1.90;1.60;;;;;;;18.45;100.00;99016.52;104479;1254;59834;-56
2023/07/20 00:46:27;;;;;;;1.80;1.50;;;;;;;18.44;100.00;99019.11;104628;1258;73719;-60
2023/07/20 00:48:56;;;;;;;;;;;;;;;18.43;100.00;99020.12;104522;1253;69074;-57
2023/07/20 00:51:24;;;;;;;5.90;2.00;;;;;;;18.36;100.00;99017.52;104324;1253;72376;-56
2023/07/20 00:53:52;;;;;;;3.90;1.80;;;;;;;18.30;100.00;99018.16;104470;1255;61433;-57
2023/07/20 00:56:20;;;;;;;4.50;2.10;;;;;;;18.28;100.00;99020.08;104435;1258;60188;-57
2023/07/20 00:58:48;;;;;;;3.00;1.60;;;;;;;18.27;100.00;99020.91;104299;1261;73720;-57
2023/07/20 01:01:16;;;;;;;4.70;1.70;;;;;;;18.25;100.00;99018.42;104377;1260;69166;-56
2023/07/20 01:03:44;;;;;;;3.50;1.60;;;;;;;18.19;100.00;99018.70;104314;1257;73322;-57
2023/07/20 01:06:34;;;;;;;1.70;1.50;;;;;;;18.17;100.00;99017.15;104342;1255;60476;-57
2023/07/20 01:09:08;;;;;;;1.60;1.40;;;;;;;18.18;100.00;99019.31;104353;1260;60328;-57
2023/07/20 01:12:05;;;;;;;2.20;1.70;;;;;;;18.22;100.00;99015.98;104292;1258;73768;-59
2023/07/20 01:14:33;;;;;;;5.80;2.10;;;;;;;18.25;100.00;99011.88;104423;1258;69100;-57
2023/07/20 01:17:01;;;;;;;;;;;;;;;18.24;100.00;99006.55;104324;1267;72439;-57
2023/07/20 01:19:29;;;;;;;1.90;1.30;;;;;;;18.23;100.00;99005.25;104221;1260;60641;-57
2023/07/20 01:22:23;;;;;;;2.30;2.10;;;;;;;18.20;100.00;99005.54;104321;1262;60572;-57
2023/07/20 01:25:05;;;;;;;2.10;1.50;;;;;;;18.16;100.00;99008.88;104340;1272;73731;-58
2023/07/20 01:28:05;;;;;;;1.90;1.70;;;;;;;18.15;100.00;99011.25;104328;1259;69053;-57
2023/07/20 01:30:48;;;;;;;4.00;1.90;;;;;;;18.13;100.00;99009.52;104179;1261;72643;-57
2023/07/20 01:33:16;;;;;;;3.50;1.50;;;;;;;18.06;100.00;99007.73;104291;1259;59856;-57
2023/07/20 01:35:45;;;;;;;7.20;1.80;;;;;;;18.04;100.00;99010.41;104280;1259;60217;-57
2023/07/20 01:38:13;;;;;;;5.00;1.70;;;;;;;18.01;100.00;99013.02;105261;1253;72733;-57
2023/07/20 01:40:41;;;;;;;2.40;1.70;;;;;;;18.00;100.00;99012.17;107885;1253;69047;-58
2023/07/20 01:43:08;;;;;;;1.70;1.60;;;;;;;18.01;100.00;99012.41;104588;1254;72479;-57
2023/07/20 01:45:36;;;;;;;1.70;1.60;;;;;;;18.11;100.00;99015.70;104576;1269;61863;-57
2023/07/20 01:48:04;;;;;;;2.80;2.00;;;;;;;18.11;100.00;99012.10;104437;1254;62072;-57
2023/07/20 01:50:34;;;;;;;;;;;;;;;18.05;100.00;99014.96;104634;1259;73064;-58
2023/07/20 01:53:02;;;;;;;4.20;1.70;;;;;;;18.00;100.00;99015.33;104334;1254;69380;-58
2023/07/20 01:55:29;;;;;;;1.60;1.50;;;;;;;17.94;100.00;99010.34;104396;1272;73361;-58
2023/07/20 01:57:59;;;;;;;1.70;1.30;;;;;;;17.90;100.00;99009.83;104423;1261;61414;-58
2023/07/20 02:00:27;;;;;;;2.90;2.00;;;;;;;17.87;100.00;99013.56;104340;1254;60540;-59
2023/07/20 02:02:55;;;;;;;2.00;1.70;;;;;;;17.80;100.00;99018.20;104291;1254;73596;-57
2023/07/20 02:05:23;;;;;;;2.10;1.70;;;;;;;17.72;100.00;99018.83;104340;1269;69679;-57
2023/07/20 02:07:51;;;;;;;2.10;1.40;;;;;;;17.68;100.00;99020.64;104429;1258;72528;-57
2023/07/20 02:10:20;;;;;;;4.50;1.70;;;;;;;17.68;100.00;99022.20;104342;1254;60531;-57
2023/07/20 02:12:48;;;;;;;3.90;1.90;;;;;;;17.68;100.00;99023.21;104302;1254;60760;-57
2023/07/20 02:15:18;;;;;;;;;;;;;;;17.67;100.00;99024.27;104574;1257;73854;-57
2023/07/20 02:17:46;;;;;;;4.10;1.90;;;;;;;17.65;100.00;99026.91;104460;1254;70026;-58
2023/07/20 02:20:14;;;;;;;2.50;1.60;;;;;;;17.66;100.00;99032.49;104333;1257;73345;-57
2023/07/20 02:22:42;;;;;;;2.00;1.50;;;;;;;17.68;100.00;99029.11;104338;1254;60564;-56
2023/07/20 02:25:09;;;;;;;3.50;1.50;;;;;;;17.68;100.00;99027.66;104400;1255;60555;-56
2023/07/20 02:27:38;;;;;;;4.80;1.70;;;;;;;17.70;100.00;99028.46;104434;1260;73582;-57
2023/07/20 02:30:07;;;;;;;3.10;1.90;;;;;;;17.73;100.00;99026.27;104437;1254;68601;-58
2023/07/20 02:32:37;;;;;;;2.60;1.70;;;;;;;17.74;100.00;99025.08;104306;1254;72497;-57
2023/07/20 02:35:06;;;;;;;2.30;1.40;;;;;;;17.77;100.00;99022.88;104509;1256;61079;-59
2023/07/20 02:37:33;;;;;;;6.50;2.20;;;;;;;17.79;100.00;99020.27;104421;1252;60616;-57
2023/07/20 02:40:02;;;;;;;3.30;2.00;;;;;;;17.79;100.00;99016.93;106599;1253;74061;-56
2023/07/20 02:42:30;;;;;;;4.70;2.10;;;;;;;17.77;100.00;99015.08;108103;1253;69247;-56
2023/07/20 02:44:58;;;;;;;5.00;2.20;;;;;;;17.80;100.00;99016.09;104683;1255;72788;-55
2023/07/20 02:47:26;;;;;;;4.30;1.60;;;;;;;17.85;100.00;99015.02;104571;1258;61425;-55
2023/07/20 02:49:53;;;;;;;;;;;;;;;17.90;100.00;99012.45;104621;1253;61335;-56
2023/07/20 02:52:24;;;;;;;3.00;1.80;;;;;;;17.89;100.00;99012.20;104492;1274;72763;-55
2023/07/20 02:54:52;;;;;;;3.10;1.90;;;;;;;17.89;100.00;99013.46;104341;1258;69101;-55
2023/07/20 02:57:20;;;;;;;;;;;;;;;17.90;100.00;99008.39;104369;1258;72508;-64
2023/07/20 02:59:47;;;;;;;1.90;1.50;;;;;;;17.89;100.00;99008.77;104915;1253;61481;-55
2023/07/20 03:02:15;;;;;;;3.60;1.50;;;;;;;17.92;100.00;99011.91;107907;1253;60688;-57
2023/07/20 03:04:43;;;;;;;4.00;1.90;;;;;;;17.95;100.00;99010.08;104420;1274;73781;-56
2023/07/20 03:07:11;;;;;;;2.50;1.70;;;;;;;17.97;100.00;99008.55;104489;1269;69222;-56
2023/07/20 03:09:39;;;;;;;1.90;1.70;;;;;;;17.92;100.00;99003.40;104834;1259;72190;-59
2023/07/20 03:12:07;;;;;;;3.70;1.50;;;;;;;17.89;100.00;99008.63;104604;1257;61857;-56
2023/07/20 03:14:35;;;;;;;4.60;1.50;;;;;;;17.86;100.00;99010.45;104420;1254;60560;-59
2023/07/20 03:17:04;;;;;;;4.80;1.70;;;;;;;17.85;100.00;99008.06;104442;1259;73798;-58
2023/07/20 03:19:33;;;;;;;1.60;1.50;;;;;;;17.83;100.00;99010.01;104322;1267;68430;-59
2023/07/20 03:22:00;;;;;;;3.90;1.60;;;;;;;17.80;100.00;99008.45;104435;1269;73520;-58
2023/07/20 03:24:28;;;;;;;2.20;1.60;;;;;;;17.85;100.00;99007.17;104306;1254;60619;-57
2023/07/20 03:26:56;;;;;;;1.70;1.40;;;;;;;17.94;100.00;99010.00;104342;1253;60486;-57
2023/07/20 03:29:24;;;;;;;7.00;1.90;;;;;;;18.05;100.00;99004.35;104481;1256;73612;-56
2023/07/20 03:31:52;;;;;;;2.70;1.90;;;;;;;18.13;100.00;99006.11;104344;1260;69461;-58
2023/07/20 03:34:20;;;;;;;2.70;2.10;;;;;;;18.21;100.00;99007.89;104374;1254;72495;-58
2023/07/20 03:36:47;;;;;;;7.40;1.60;;;;;;;18.27;100.00;99007.39;104310;1257;61877;-59
2023/07/20 03:39:15;;;;;;;2.50;1.80;;;;;;;18.34;100.00;99006.44;104312;1260;59379;-58
2023/07/20 03:41:43;;;;;;;2.20;1.70;;;;;;;18.45;100.00;99004.47;107997;1253;74123;-56
2023/07/20 03:44:11;;;;;;;4.70;1.70;;;;;;;18.55;100.00;99003.27;107430;1256;69241;-56
2023/07/20 03:46:38;;;;;;;;;;;;;;;18.65;100.00;99002.89;104636;1254;72546;-58
2023/07/20 03:49:06;;;;;;;;;;;;;;;18.76;100.00;99007.71;104542;1257;60493;-56
2023/07/20 03:51:34;;;;;;;2.00;1.70;;;;;;;18.82;100.00;99005.91;104541;1252;60493;-59
2023/07/20 03:54:02;;;;;;;2.80;1.70;;;;;;;18.89;100.00;99004.46;104835;1259;74124;-57
2023/07/20 03:56:34;;;;;;;2.40;1.70;;;;;;;18.94;100.00;99002.38;104452;1258;69258;-57
2023/07/20 03:59:02;;;;;;;5.60;1.70;;;;;;;19.00;100.00;99003.27;104364;1254;71951;-57
2023/07/20 04:01:29;;;;;;;2.30;1.80;;;;;;;19.06;100.00;99006.99;104395;1258;61393;-57
2023/07/20 04:03:57;;;;;;;1.30;1.10;;;;;;;19.14;100.00;99008.84;104380;1257;60606;-57
2023/07/20 04:06:25;;;;;;;;;;;;;;;19.22;100.00;99005.21;104440;1253;74006;-57
2023/07/20 04:08:53;;;;;;;2.80;1.60;;;;;;;19.31;100.00;99006.73;104534;1259;69103;-57
2023/07/20 04:11:20;;;;;;;;;;;;;;;19.38;100.00;99005.66;104392;1259;72883;-57
2023/07/20 04:13:48;;;;;;;1.80;1.50;;;;;;;19.41;100.00;99009.46;104363;1254;60595;-57
2023/07/20 04:16:16;;;;;;;3.00;1.60;;;;;;;19.46;100.00;99008.29;104376;1272;59786;-57
2023/07/20 04:18:44;;;;;;;6.90;1.60;;;;;;;19.52;100.00;99009.55;104419;1259;74081;-57
2023/07/20 04:21:12;;;;;;;3.10;1.70;;;;;;;19.59;100.00;99009.79;104280;1260;69606;-57
2023/07/20 04:23:39;;;;;;;;;;;;;;;19.69;100.00;99009.25;104367;1259;72487;-58
2023/07/20 04:26:08;;;;;;;4.40;2.00;;;;;;;19.77;100.00;99012.62;104367;1257;60445;-59
2023/07/20 04:28:35;;;;;;;5.80;1.80;;;;;;;19.83;100.00;99007.79;104349;1259;59374;-55
2023/07/20 04:31:11;;;;;;;3.00;2.00;;;;;;;19.93;100.00;99002.30;104299;1263;73698;-55
2023/07/20 04:33:39;;;;;;;1.60;1.50;;;;;;;20.02;100.00;98998.58;104470;1256;68261;-58
2023/07/20 04:36:07;;;;;;;;;;;;;;;20.13;100.00;98997.39;104385;1257;72518;-56
2023/07/20 04:38:36;;;;;;;2.90;1.70;;;;;;;20.21;100.00;98998.27;104431;1254;60536;-56
2023/07/20 04:41:14;;;;;;;3.50;1.80;;;;;;;20.28;100.00;98996.75;105698;1253;60467;-56
2023/07/20 04:43:45;;;;;;;2.80;1.40;;;;;;;20.38;100.00;98999.56;108002;1252;73050;-57
2023/07/20 04:46:17;;;;;;;2.40;1.60;;;;;;;20.49;100.00;98996.58;105305;1257;70341;-56
2023/07/20 04:48:46;;;;;;;2.50;1.60;;;;;;;20.57;100.00;99001.80;104364;1268;72735;-56
2023/07/20 04:51:13;;;;;;;;;;;;;;;20.67;100.00;99001.69;104443;1256;61448;-56
2023/07/20 04:53:41;;;;;;;;;;;;;;;20.75;100.00;98997.36;104391;1257;60467;-56
2023/07/20 04:56:10;;;;;;;4.50;1.70;;;;;;;20.82;100.00;98999.69;104258;1256;73584;-56
2023/07/20 04:58:38;;;;;;;2.90;1.60;;;;;;;20.88;100.00;98996.32;104350;1259;69641;-55
2023/07/20 05:01:06;;;;;;;2.10;1.90;;;;;;;20.97;100.00;98999.34;104823;1258;72938;-56
2023/07/20 05:03:35;;;;;;;2.50;1.90;;;;;;;21.06;100.00;98997.90;107524;1253;61399;-56
2023/07/20 05:06:04;;;;;;;2.30;1.70;;;;;;;21.14;100.00;98995.41;107989;1252;59799;-56
2023/07/20 05:08:31;;;;;;;3.40;1.80;;;;;;;21.21;100.00;98995.02;108314;1251;74077;-59
2023/07/20 05:11:00;;;;;;;2.00;1.70;;;;;;;21.31;100.00;98996.90;108270;1251;69536;-56
2023/07/20 05:13:27;;;;;;;;;;;;;;;21.45;100.00;98993.45;106385;1254;72673;-58
2023/07/20 05:15:55;;;;;;;;;;;;;;;21.56;100.00;98989.00;104889;1259;62129;-55
2023/07/20 05:18:23;;;;;;;2.60;1.80;;;;;;;21.59;100.00;98986.54;104505;1253;60587;-55
2023/07/20 05:20:51;;;;;;;3.80;1.90;;;;;;;21.75;100.00;98985.34;104516;1260;74047;-55
2023/07/20 05:23:19;;;;;;;2.10;1.70;;;;;;;21.92;100.00;98978.99;104387;1259;69084;-56
2023/07/20 05:25:57;;;;;;;;;;;;;;;22.03;100.00;98977.19;104584;1256;72342;-56
2023/07/20 05:28:28;;;;;;;3.20;2.10;;;;;;;22.14;100.00;98973.19;104587;1257;60567;-55
2023/07/20 05:30:55;;;;;;;2.60;1.90;;;;;;;22.24;100.00;98972.02;104384;1256;62062;-56
2023/07/20 05:33:23;;;;;;;6.50;1.70;;;;;;;22.35;100.00;98966.30;104651;1254;73727;-56
2023/07/20 05:35:51;;;;;;;3.80;1.70;;;;;;;22.43;100.00;98968.29;104579;1252;70011;-56
2023/07/20 05:38:19;;;;;;;5.70;2.00;;;;;;;22.54;100.00;98970.05;104311;1275;72363;-56
2023/07/20 05:40:47;;;;;;;3.10;1.60;;;;;;;22.63;100.00;98963.77;104703;1258;61627;-56
2023/07/20 05:43:15;;;;;;;5.80;1.80;;;;;;;22.73;100.00;98966.67;104359;1257;60503;-56
2023/07/20 05:45:44;;;;;;;1.70;1.50;;;;;;;22.84;100.00;98962.84;105221;1257;74529;-56
2023/07/20 05:48:13;;;;;;;2.80;1.70;;;;;;;22.94;100.00;98962.98;104685;1259;69389;-56
2023/07/20 05:50:43;;;;;;;2.20;2.00;;;;;;;23.05;100.00;98964.52;104610;1256;72928;-57
2023/07/20 05:53:11;;;;;;;4.10;2.20;;;;;;;23.17;100.00;98964.38;104434;1258;60598;-55
2023/07/20 05:55:39;;;;;;;4.40;2.20;;;;;;;23.24;100.00;98960.43;104694;1252;60558;-57
2023/07/20 05:58:07;;;;;;;7.40;1.70;;;;;;;23.30;100.00;98959.83;104415;1259;73618;-56
2023/07/20 06:00:35;;;;;;;;;;;;;;;23.38;100.00;98958.45;104463;1259;69998;-57
2023/07/20 06:03:03;;;;;;;2.70;1.80;;;;;;;23.45;100.00;98961.79;104530;1255;73884;-56
2023/07/20 06:05:31;;;;;;;2.90;2.10;;;;;;;23.50;100.00;98964.58;104343;1257;62393;-56
2023/07/20 06:08:00;;;;;;;2.10;1.50;;;;;;;23.58;100.00;98965.23;104546;1257;60656;-56
2023/07/20 06:10:28;;;;;;;6.90;1.70;;;;;;;23.65;100.00;98969.77;104411;1267;72647;-56
2023/07/20 06:12:56;;;;;;;2.90;1.70;;;;;;;23.76;100.00;98965.96;104284;1265;69054;-57
2023/07/20 06:15:25;;;;;;;3.90;1.60;;;;;;;23.85;100.00;98965.73;104530;1262;72218;-55
2023/07/20 06:17:54;;;;;;;5.70;1.80;;;;;;;23.93;100.00;98961.42;104376;1265;60546;-56
2023/07/20 06:20:23;;;;;;;2.90;1.60;;;;;;;24.03;100.00;98956.26;104431;1258;60653;-56
2023/07/20 06:22:50;;;;;;;3.40;1.30;;;;;;;24.11;100.00;98953.03;104437;1257;73685;-56
2023/07/20 06:25:18;;;;;;;;;;;;;;;24.24;100.00;98948.66;104360;1266;69745;-56
2023/07/20 06:27:46;;;;;;;3.90;1.50;;;;;;;24.35;99.61;98942.11;104466;1260;72467;-56
2023/07/20 06:30:14;;;;;;;8.80;1.50;;;;;;;24.46;97.31;98943.39;104422;1258;59771;-56
2023/07/20 06:32:41;;;;;;;;;;;;;;;24.59;93.23;98945.78;104477;1256;60480;-56
2023/07/20 06:35:10;;;;;;;17.10;15.20;;;;;;;24.72;91.93;98948.29;104354;1258;74076;-55
2023/07/20 06:37:37;;;;;;;;;;;;;;;24.79;92.54;98950.17;104486;1256;69647;-56
2023/07/20 06:40:05;;;;;;;;;;;;;;;24.89;86.90;98949.04;104494;1259;73380;-56
2023/07/20 06:42:36;;;;;;;6.50;2.80;;;;;;;24.89;90.54;98951.15;105909;1254;60576;-56
2023/07/20 06:45:08;;;;;;;5.10;2.30;;;;;;;24.94;91.86;98952.59;108332;1253;59771;-56
2023/07/20 06:47:39;;;;;;;1.70;1.40;;;;;;;25.01;93.34;98957.14;108263;1252;74124;-57
2023/07/20 06:50:08;;;;;;;5.20;1.60;;;;;;;25.11;90.98;98959.27;108311;1254;69097;-56
2023/07/20 06:52:36;;;;;;;4.60;1.30;;;;;;;25.20;88.02;98959.51;107617;1253;72242;-56
2023/07/20 06:55:05;;;;;;;7.10;1.50;;;;;;;25.28;89.38;98958.95;108254;1255;60726;-54
2023/07/20 06:57:33;;;;;;;3.90;1.50;;;;;;;25.37;85.53;98952.38;107577;1258;59906;-54
2023/07/20 07:00:00;;;;;;;2.20;1.70;;;;;;;25.43;84.64;98950.15;104280;1265;73686;-57
2023/07/20 07:02:28;;;;;;;;;;;;;;;25.52;86.76;98950.92;104452;1255;70025;-57
2023/07/20 07:04:56;;;;;;;3.20;1.60;;;;;;;25.60;85.56;98950.02;104320;1259;72329;-56
2023/07/20 07:07:27;;;;;;;5.10;1.60;;;;;;;25.67;84.09;98954.09;107452;1253;63175;-56
2023/07/20 07:09:54;;;;;;;2.70;1.20;;;;;;;25.77;75.83;98952.66;107542;1257;59790;-56
2023/07/20 07:12:22;;;;;;;;;;;;;;;25.89;71.80;98948.84;104820;1253;73620;-56
2023/07/20 07:14:50;;;;;;;2.90;1.40;;;;;;;25.95;74.40;98950.27;104527;1253;69810;-56
2023/07/20 07:17:18;;;;;;;3.60;1.60;;;;;;;25.97;74.36;98948.23;104769;1260;72511;-56
2023/07/20 07:19:46;;;;;;;3.10;1.70;;;;;;;26.04;68.80;98946.52;104612;1259;61139;-56
2023/07/20 07:22:16;;;;;;;2.90;2.20;;;;;;;26.13;68.13;98945.50;104286;1254;60967;-56
2023/07/20 07:24:44;;;;;;;;;;;;;;;26.20;68.58;98948.10;104421;1258;74359;-58
2023/07/20 07:27:12;;;;;;;1.80;1.30;;;;;;;26.27;68.70;98944.98;104410;1257;69083;-56
2023/07/20 07:29:39;;;;;;;4.20;1.20;;;;;;;26.31;68.42;98945.44;104302;1258;72401;-56
2023/07/20 07:32:10;;;;;;;2.80;1.50;;;;;;;26.39;67.21;98940.34;104371;1263;60435;-56
2023/07/20 07:34:38;;;;;;;3.50;1.60;;;;;;;26.47;66.17;98936.21;104386;1259;60544;-56
2023/07/20 07:37:06;;;;;;;2.60;1.30;;;;;;;26.52;65.59;98932.98;104455;1258;73009;-56
2023/07/20 07:39:33;;;;;;;2.60;1.50;;;;;;;26.60;65.56;98936.75;104811;1259;69218;-59
2023/07/20 07:42:02;;;;;;;2.00;1.30;;;;;;;26.70;63.91;98935.95;104908;1258;72393;-56
2023/07/20 07:44:30;;;;;;;2.70;1.50;;;;;;;26.80;61.80;98935.98;106603;1254;60454;-56
2023/07/20 07:46:58;;;;;;;3.90;1.40;;;;;;;26.85;59.88;98928.55;108020;1254;59858;-57
2023/07/20 07:49:26;;;;;;;;;;;;;;;26.88;61.46;98928.65;104575;1258;74098;-58
2023/07/20 07:51:53;;;;;;;;;;;;;;;26.97;59.84;98925.27;104531;1258;70013;-56
2023/07/20 07:54:21;;;;;;;1.70;1.30;;;;;;;27.04;56.86;98923.27;104669;1265;72527;-56
2023/07/20 07:56:51;;;;;;;2.50;1.30;;;;;;;27.10;59.25;98923.63;104986;1256;60581;-56
2023/07/20 07:59:18;;;;;;;6.70;1.50;;;;;;;27.16;59.55;98921.27;104651;1257;60506;-55
2023/07/20 08:01:46;;;;;;;2.10;1.20;;;;;;;27.20;58.15;98923.84;104900;1258;73598;-55
2023/07/20 08:04:14;;;;;;;3.80;1.20;;;;;;;27.23;57.69;98923.02;104509;1257;70095;-55
2023/07/20 08:06:42;;;;;;;3.40;1.50;;;;;;;27.22;56.60;98919.02;104426;1257;72385;-57
2023/07/20 08:09:10;;;;;;;1.60;1.30;;;;;;;27.24;56.66;98922.84;104357;1259;60582;-55
2023/07/20 08:11:39;;;;;;;1.60;1.40;;;;;;;27.31;56.60;98921.61;104654;1258;60623;-56
2023/07/20 08:14:07;;;;;;;8.40;1.50;;;;;;;27.39;56.82;98927.88;104864;1259;73748;-57
2023/07/20 08:16:35;;;;;;;3.20;1.40;;;;;;;27.46;54.42;98932.23;104696;1253;68219;-55
2023/07/20 08:19:03;;;;;;;1.40;1.30;;;;;;;27.46;54.11;98928.83;104644;1254;72958;-55
2023/07/20 08:21:31;;;;;;;2.30;1.40;;;;;;;27.45;56.78;98923.54;104650;1259;60545;-56
2023/07/20 08:23:58;;;;;;;3.80;1.50;;;;;;;27.55;56.09;98925.88;105060;1259;61163;-56
2023/07/20 08:26:26;;;;;;;2.00;1.20;;;;;;;27.65;54.90;98922.41;104716;1259;74572;-56
2023/07/20 08:28:56;;;;;;;1.40;1.30;;;;;;;27.69;53.55;98917.55;104315;1266;69743;-55
2023/07/20 08:31:23;;;;;;;6.70;1.40;;;;;;;27.73;52.07;98919.81;104391;1264;72092;-55
2023/07/20 08:33:51;;;;;;;;;;;;;;;27.76;50.97;98907.89;104693;1258;60872;-55
2023/07/20 08:36:19;;;;;;;;;;;;;;;27.82;51.44;98907.02;104278;1257;60549;-56
2023/07/20 08:38:48;;;;;;;1.90;1.30;;;;;;;27.86;51.60;98907.02;104388;1260;76302;-55
2023/07/20 08:41:16;;;;;;;2.70;1.30;;;;;;;27.93;50.49;98906.35;104314;1268;69227;-56
2023/07/20 08:43:44;;;;;;;2.80;1.20;;;;;;;28.02;49.34;98901.97;104430;1253;73273;-54
2023/07/20 08:46:12;;;;;;;1.30;1.20;;;;;;;28.08;48.29;98899.40;106757;1254;60481;-56
2023/07/20 08:48:41;;;;;;;2.40;1.40;;;;;;;28.23;48.13;98899.48;105900;1257;60603;-57
2023/07/20 08:51:08;;;;;;;1.70;1.40;;;;;;;28.27;48.65;98899.27;104452;1259;73640;-56
2023/07/20 08:53:36;;;;;;;6.00;1.50;;;;;;;28.35;48.56;98899.16;104603;1260;69319;-55
2023/07/20 08:56:04;;;;;;;;;;;;;;;28.39;48.11;98897.23;104790;1254;72564;-56
2023/07/20 09:00:21;;;;;;;1.40;1.10;;;;;;;28.01;49.22;98898.82;101641;1294;601506;-54
2023/07/20 09:02:53;;;;;;;3.60;1.40;;;;;;;28.20;48.69;98895.48;104358;1267;59817;-55
2023/07/20 09:05:22;;;;;;;3.00;1.50;;;;;;;28.19;48.79;98889.16;104071;1269;59791;-55
2023/07/20 09:07:52;;;;;;;5.90;1.40;;;;;;;28.26;48.15;98881.06;103863;1270;71952;-55
2023/07/20 09:10:21;;;;;;;3.10;1.60;;;;;;;28.35;46.48;98884.14;104544;1264;70015;-56
2023/07/20 09:12:49;;;;;;;2.10;1.60;;;;;;;28.40;44.69;98881.46;105860;1264;1053956;-56
2023/07/20 09:15:17;;;;;;;2.50;1.40;;;;;;;28.40;43.30;98872.77;104279;1264;60307;-55
2023/07/20 09:17:53;;;;;;;1.90;1.80;;;;;;;28.40;43.96;98871.45;103979;1269;59326;-55
2023/07/20 09:20:21;;;;;;;7.60;1.40;;;;;;;28.48;44.30;98869.21;104691;1265;71813;-56
2023/07/20 09:22:52;;;;;;;2.00;1.40;;;;;;;28.57;44.05;98873.81;103897;1263;69988;-56
2023/07/20 09:25:20;;;;;;;2.40;1.30;;;;;;;28.64;45.57;98873.89;104085;1275;72764;-57
2023/07/20 09:27:50;;;;;;;3.00;1.40;;;;;;;28.75;44.28;98871.61;103923;1269;60912;-57
2023/07/20 09:30:19;;;;;;;2.60;1.30;;;;;;;28.77;42.49;98871.20;103734;1262;59828;-55
2023/07/20 09:32:48;;;;;;;2.70;1.40;;;;;;;28.75;42.22;98876.02;104106;1267;73275;-57
2023/07/20 09:35:22;;;;;;;1.80;1.70;;;;;;;28.78;44.73;98875.23;103758;1265;69137;-57
2023/07/20 09:37:59;;;;;;;1.60;1.40;;;;;;;28.88;43.90;98875.69;104210;1273;72332;-58
2023/07/20 09:40:30;;;;;;;;;;;;;;;28.95;44.31;98870.67;103912;1266;60789;-57
2023/07/20 09:43:03;;;;;;;1.60;1.50;;;;;;;29.01;45.07;98870.69;105796;1263;59499;-58
2023/07/20 09:45:36;;;;;;;1.40;1.10;;;;;;;29.10;42.75;98869.68;104541;1259;72883;-58
2023/07/20 09:48:07;;;;;;;3.20;1.40;;;;;;;29.15;42.62;98872.84;107295;1259;69697;-58
2023/07/20 09:50:49;;;;;;;2.10;1.60;;;;;;;29.24;42.39;98868.57;103924;1265;72286;-57
2023/07/20 09:53:20;;;;;;;4.50;1.60;;;;;;;29.26;39.73;98868.20;104013;1264;59774;-57
2023/07/20 09:55:48;;;;;;;3.40;1.90;;;;;;;29.27;40.04;98866.08;104373;1267;60113;-56
2023/07/20 09:58:16;;;;;;;;;;;;;;;29.35;41.20;98864.98;104077;1260;71852;-57
2023/07/20 10:00:49;;;;;;;3.50;1.50;;;;;;;29.39;40.49;98862.98;104922;1259;69266;-57
2023/07/20 10:03:21;;;;;;;;;;;;;;;29.47;41.46;98860.41;104653;1256;72732;-55
2023/07/20 10:05:56;;;;;;;3.60;1.80;;;;;;;29.57;40.51;98856.73;104882;1257;59930;-56
2023/07/20 10:08:25;;;;;;;2.40;2.00;;;;;;;29.61;39.81;98853.95;105218;1255;59733;-55
2023/07/20 10:10:57;;;;;;;2.10;1.70;;;;;;;29.62;39.76;98852.06;104567;1254;73140;-57
2023/07/20 10:13:26;;;;;;;2.30;2.00;;;;;;;29.67;40.64;98852.12;105020;1260;69337;-56
2023/07/20 10:15:55;;;;;;;3.10;2.20;;;;;;;29.78;39.74;98853.45;104487;1257;72467;-56
2023/07/20 10:18:28;;;;;;;1.90;1.70;;;;;;;29.81;39.57;98846.96;104382;1258;60204;-57
2023/07/20 10:20:56;;;;;;;3.80;2.00;;;;;;;29.85;39.91;98846.55;104379;1272;59897;-57
2023/07/20 10:23:28;;;;;;;4.60;2.10;;;;;;;29.87;39.79;98843.25;104391;1259;73677;-57
2023/07/20 10:25:57;;;;;;;2.30;1.90;;;;;;;29.93;39.38;98842.55;104477;1257;69339;-56
2023/07/20 10:28:27;;;;;;;4.90;1.80;;;;;;;29.96;39.08;98838.52;104416;1257;72471;-58
2023/07/20 10:30:55;;;;;;;;;;;;;;;29.93;38.85;98841.08;104437;1257;59818;-57
2023/07/20 10:33:23;;;;;;;1.90;1.50;;;;;;;29.93;38.91;98842.25;104393;1251;59682;-58
2023/07/20 10:36:00;;;;;;;2.60;1.60;;;;;;;29.88;39.86;98837.89;104490;1257;71817;-58
2023/07/20 10:38:41;;;;;;;2.80;1.40;;;;;;;29.91;39.69;98833.29;104342;1261;70145;-58
2023/07/20 10:41:18;;;;;;;3.80;1.60;;;;;;;29.93;38.83;98824.00;104467;1254;72419;-57
2023/07/20 10:43:48;;;;;;;2.80;1.40;;;;;;;29.86;39.92;98819.25;104616;1256;60128;-57
2023/07/20 10:46:38;;;;;;;5.20;1.70;;;;;;;29.88;40.13;98823.55;106008;1251;59687;-57
2023/07/20 10:49:07;;;;;;;5.20;1.70;;;;;;;29.92;40.18;98827.58;107356;1254;73293;-56
2023/07/20 10:51:46;;;;;;;1.30;1.20;;;;;;;29.98;39.45;98820.35;104911;1259;69159;-57
2023/07/20 10:54:17;;;;;;;1.30;1.20;;;;;;;30.02;39.04;98817.02;104637;1268;72859;-56
2023/07/20 10:56:47;;;;;;;3.20;1.70;;;;;;;30.03;39.10;98812.97;104455;1256;59978;-56
2023/07/20 10:59:20;;;;;;;2.50;1.90;;;;;;;29.99;38.02;98809.52;104502;1257;59834;-56
2023/07/20 11:01:49;;;;;;;1.50;1.40;;;;;;;29.99;38.30;98810.23;104773;1257;72870;-57
2023/07/20 11:04:18;;;;;;;4.50;1.60;;;;;;;30.04;38.97;98808.34;104616;1252;69058;-57
2023/07/20 11:06:47;;;;;;;1.70;1.60;;;;;;;30.03;38.13;98805.89;104547;1261;72416;-54
2023/07/20 11:09:16;;;;;;;1.70;1.40;;;;;;;30.03;38.55;98804.25;104570;1254;59832;-54
2023/07/20 11:11:46;;;;;;;4.50;1.50;;;;;;;30.07;38.32;98804.95;104462;1265;59752;-54
2023/07/20 11:14:21;;;;;;;1.30;1.20;;;;;;;30.19;39.39;98807.51;108389;1253;73208;-57
2023/07/20 11:16:51;;;;;;;2.10;1.50;;;;;;;30.29;38.18;98803.55;107229;1257;69611;-55
2023/07/20 11:19:25;;;;;;;1.70;1.60;;;;;;;30.36;36.66;98797.69;104771;1257;72798;-57
2023/07/20 11:21:57;;;;;;;1.60;1.50;;;;;;;30.39;37.08;98792.54;104445;1251;59786;-55
2023/07/20 11:24:31;;;;;;;1.60;1.40;;;;;;;30.45;37.04;98788.96;104648;1257;59709;-54
2023/07/20 11:27:00;;;;;;;2.70;1.30;;;;;;;30.43;36.57;98788.84;104333;1258;74162;-55
2023/07/20 11:29:27;;;;;;;2.10;1.60;;;;;;;30.41;36.91;98794.20;104672;1257;69053;-55
2023/07/20 11:32:02;;;;;;;4.10;1.50;;;;;;;30.46;37.34;98791.34;104468;1258;72415;-55
2023/07/20 11:34:33;;;;;;;3.30;1.30;;;;;;;30.54;37.83;98780.25;104954;1251;59898;-55
2023/07/20 11:37:02;;;;;;;3.40;1.50;;;;;;;30.62;36.80;98776.74;104324;1257;59921;-55
2023/07/20 11:39:33;;;;;;;2.20;1.60;;;;;;;30.69;36.08;98774.75;105183;1251;72810;-55
2023/07/20 11:42:00;;;;;;;1.50;1.20;;;;;;;30.73;36.39;98768.05;104752;1256;70160;-55